createdAt,value
2022-10-15T00:01:19.918Z,22.77
2022-10-15T00:03:46.619Z,24.50
2022-10-15T00:06:14.494Z,23.95
2022-10-15T00:08:41.146Z,20.25
2022-10-15T00:11:09.993Z,35.47
2022-10-15T00:13:36.719Z,22.23
2022-10-15T00:16:03.411Z,21.40
2022-10-15T00:18:30.014Z,24.10
2022-10-15T00:20:56.531Z,21.08
2022-10-15T00:23:23.066Z,17.05
2022-10-15T00:25:49.481Z,17.90
2022-10-15T00:28:15.844Z,19.13
2022-10-15T00:30:42.255Z,17.17
2022-10-15T00:33:08.555Z,15.48
2022-10-15T00:35:34.839Z,17.65
2022-10-15T00:38:01.235Z,17.00
2022-10-15T00:40:27.592Z,25.17
2022-10-15T00:42:53.866Z,24.60
2022-10-15T00:45:20.220Z,21.00
2022-10-15T00:47:50.212Z,21.17
2022-10-15T00:50:24.912Z,18.42
2022-10-15T00:52:51.268Z,23.60
2022-10-15T00:55:22.185Z,26.55
2022-10-15T00:57:49.721Z,29.80
2022-10-15T01:00:19.984Z,29.17
2022-10-15T01:02:46.744Z,27.75
2022-10-15T01:05:14.789Z,32.47
2022-10-15T01:07:41.160Z,34.47
2022-10-15T01:10:08.585Z,40.65
2022-10-15T01:12:34.910Z,36.50
2022-10-15T01:15:13.652Z,35.60
2022-10-15T01:17:43.117Z,40.75
2022-10-15T01:20:24.852Z,36.13
2022-10-15T01:23:26.572Z,36.75
2022-10-15T01:25:55.735Z,35.47
2022-10-15T01:28:40.931Z,33.80
2022-10-15T01:31:15.872Z,34.92
2022-10-15T01:33:49.204Z,36.03
2022-10-15T01:36:18.269Z,31.55
2022-10-15T01:38:58.377Z,36.67
2022-10-15T01:41:27.584Z,34.75
2022-10-15T01:44:12.608Z,32.05
2022-10-15T01:46:49.353Z,37.20
2022-10-15T01:49:17.552Z,38.88
2022-10-15T01:51:44.212Z,35.65
2022-10-15T01:54:12.360Z,37.75
2022-10-15T01:56:39.357Z,36.33
2022-10-15T01:59:07.138Z,34.03
2022-10-15T02:01:33.638Z,31.75
2022-10-15T02:03:59.990Z,32.05
2022-10-15T02:06:36.754Z,33.88
2022-10-15T02:09:11.884Z,36.60
2022-10-15T02:11:56.533Z,33.00
2022-10-15T02:14:29.606Z,34.58
2022-10-15T02:16:59.600Z,39.25
2022-10-15T02:19:28.319Z,32.03
2022-10-15T02:21:59.476Z,37.75
2022-10-15T02:24:27.400Z,31.92
2022-10-15T02:26:54.741Z,30.15
2022-10-15T02:29:22.832Z,34.92
2022-10-15T02:31:49.894Z,35.35
2022-10-15T02:34:20.923Z,32.05
2022-10-15T02:36:47.554Z,35.90
2022-10-15T02:39:16.005Z,36.53
2022-10-15T02:41:43.230Z,35.28
2022-10-15T02:44:09.530Z,35.30
2022-10-15T02:46:35.808Z,37.55
2022-10-15T02:49:02.327Z,39.80
2022-10-15T02:51:31.477Z,39.30
2022-10-15T02:53:57.764Z,34.33
2022-10-15T02:56:24.111Z,34.95
2022-10-15T02:58:50.768Z,33.33
2022-10-15T03:01:17.258Z,34.83
2022-10-15T03:03:43.725Z,40.33
2022-10-15T03:06:10.189Z,31.63
2022-10-15T03:08:36.784Z,38.67
2022-10-15T03:11:03.124Z,50.72
2022-10-15T03:13:29.553Z,38.80
2022-10-15T03:15:56.138Z,36.38
2022-10-15T03:18:22.830Z,41.33
2022-10-15T03:20:56.070Z,35.15
2022-10-15T03:23:22.894Z,33.67
2022-10-15T03:25:49.488Z,38.42
2022-10-15T03:28:16.363Z,41.38
2022-10-15T03:30:42.832Z,35.85
2022-10-15T03:33:09.229Z,35.92
2022-10-15T03:35:35.649Z,34.47
2022-10-15T03:38:01.938Z,35.97
2022-10-15T03:40:28.295Z,34.00
2022-10-15T03:42:56.424Z,36.30
2022-10-15T03:45:23.191Z,36.53
2022-10-15T03:47:49.588Z,34.03
2022-10-15T03:50:16.362Z,35.92
2022-10-15T03:52:42.922Z,42.70
2022-10-15T03:55:09.868Z,36.88
2022-10-15T03:57:39.656Z,38.97
2022-10-15T04:00:06.951Z,38.63
2022-10-15T04:02:33.219Z,38.97
2022-10-15T04:05:00.104Z,38.40
2022-10-15T04:07:26.827Z,38.42
2022-10-15T04:09:53.163Z,37.20
2022-10-15T04:12:20.912Z,40.55
2022-10-15T04:14:47.435Z,41.50
2022-10-15T04:17:13.855Z,40.28
2022-10-15T04:19:42.248Z,35.63
2022-10-15T04:22:08.510Z,33.47
2022-10-15T04:24:34.903Z,36.83
2022-10-15T04:27:01.363Z,38.83
2022-10-15T04:29:30.606Z,42.25
2022-10-15T04:31:57.153Z,42.22
2022-10-15T04:34:23.649Z,37.10
2022-10-15T04:36:50.154Z,40.70
2022-10-15T04:39:18.439Z,37.97
2022-10-15T04:41:44.739Z,40.72
2022-10-15T04:44:11.119Z,44.00
2022-10-15T04:46:37.458Z,45.47
2022-10-15T04:49:03.909Z,39.75
2022-10-15T04:51:30.378Z,42.60
2022-10-15T04:53:56.659Z,44.30
2022-10-15T04:56:23.455Z,38.55
2022-10-15T04:58:50.398Z,39.92
2022-10-15T05:01:18.052Z,40.05
2022-10-15T05:03:46.279Z,41.55
2022-10-15T05:06:17.377Z,50.13
2022-10-15T05:08:43.966Z,41.35
2022-10-15T05:11:11.667Z,44.97
2022-10-15T05:13:38.359Z,41.75
2022-10-15T05:16:12.503Z,40.92
2022-10-15T05:18:39.474Z,43.83
2022-10-15T05:21:05.981Z,38.75
2022-10-15T05:23:32.355Z,35.17
2022-10-15T05:26:01.956Z,35.85
2022-10-15T05:28:28.594Z,39.25
2022-10-15T05:30:54.997Z,36.00
2022-10-15T05:33:21.304Z,40.88
2022-10-15T05:35:47.701Z,39.92
2022-10-15T05:38:13.973Z,38.35
2022-10-15T05:40:40.335Z,34.58
2022-10-15T05:43:06.658Z,37.92
2022-10-15T05:45:33.051Z,33.88
2022-10-15T05:47:59.394Z,40.00
2022-10-15T05:50:25.731Z,33.42
2022-10-15T05:52:54.189Z,34.92
2022-10-15T05:55:20.668Z,35.63
2022-10-15T05:57:47.039Z,33.97
2022-10-15T06:00:13.737Z,34.92
2022-10-15T06:02:40.187Z,32.88
2022-10-15T06:05:06.864Z,38.00
2022-10-15T06:07:33.220Z,34.05
2022-10-15T06:09:59.496Z,35.78
2022-10-15T06:12:25.744Z,33.00
2022-10-15T06:14:52.029Z,34.45
2022-10-15T06:17:18.334Z,29.92
2022-10-15T06:19:44.590Z,32.70
2022-10-15T06:22:10.852Z,32.38
2022-10-15T06:24:37.122Z,33.65
2022-10-15T06:27:03.424Z,40.63
2022-10-15T06:29:29.675Z,34.45
2022-10-15T06:31:55.980Z,35.90
2022-10-15T06:34:22.355Z,33.25
2022-10-15T06:36:48.621Z,36.25
2022-10-15T06:39:14.879Z,37.13
2022-10-15T06:41:41.144Z,39.53
2022-10-15T06:44:07.408Z,36.40
2022-10-15T06:46:33.700Z,33.13
2022-10-15T06:49:00.033Z,38.75
2022-10-15T06:51:26.299Z,41.55
2022-10-15T06:53:52.552Z,40.20
2022-10-15T06:56:18.941Z,45.47
2022-10-15T06:58:45.198Z,35.88
2022-10-15T07:01:11.641Z,43.00
2022-10-15T07:03:39.067Z,42.90
2022-10-15T07:06:06.435Z,43.42
2022-10-15T07:08:33.242Z,43.67
2022-10-15T07:11:04.464Z,36.92
2022-10-15T07:13:30.783Z,46.65
2022-10-15T07:15:57.115Z,38.28
2022-10-15T07:18:23.518Z,42.03
2022-10-15T07:20:49.832Z,44.88
2022-10-15T07:23:16.112Z,44.65
2022-10-15T07:25:42.387Z,45.45
2022-10-15T07:28:08.695Z,43.67
2022-10-15T07:30:34.958Z,48.00
2022-10-15T07:33:01.271Z,42.90
2022-10-15T07:35:28.007Z,41.55
2022-10-15T07:37:55.044Z,42.65
2022-10-15T07:40:21.315Z,46.08
2022-10-15T07:42:54.508Z,44.38
2022-10-15T07:45:20.819Z,45.80
2022-10-15T07:47:47.098Z,48.78
2022-10-15T07:50:13.379Z,52.72
2022-10-15T07:52:39.728Z,50.70
2022-10-15T07:55:06.126Z,45.80
2022-10-15T07:57:32.457Z,55.30
2022-10-15T07:59:58.984Z,51.05
2022-10-15T08:02:26.019Z,49.28
2022-10-15T08:04:52.525Z,53.22
2022-10-15T08:07:18.859Z,46.75
2022-10-15T08:12:16.316Z,44.63
2022-10-15T08:14:42.633Z,42.25
2022-10-15T08:17:09.527Z,41.75
2022-10-15T08:19:35.781Z,42.97
2022-10-15T08:22:02.136Z,42.78
2022-10-15T08:24:30.122Z,34.03
2022-10-15T08:27:00.208Z,44.40
2022-10-15T08:29:26.563Z,37.47
2022-10-15T08:31:52.949Z,33.92
2022-10-15T08:34:19.207Z,35.22
2022-10-15T08:36:45.483Z,34.00
2022-10-15T08:39:11.800Z,28.95
2022-10-15T08:41:46.189Z,34.25
2022-10-15T08:44:23.799Z,31.13
2022-10-15T08:46:53.068Z,26.95
2022-10-15T08:49:38.039Z,25.42
2022-10-15T08:52:14.541Z,23.45
2022-10-15T08:54:40.861Z,25.40
2022-10-15T08:57:25.986Z,24.52
2022-10-15T09:00:12.812Z,21.40
2022-10-15T09:02:43.922Z,23.83
2022-10-15T09:05:29.129Z,19.15
2022-10-15T09:07:59.311Z,19.10
2022-10-15T09:10:35.785Z,17.58
2022-10-15T09:13:16.591Z,15.73
2022-10-15T09:15:54.208Z,16.17
2022-10-15T09:18:22.549Z,14.82
2022-10-15T09:20:49.173Z,14.02
2022-10-15T09:23:20.004Z,20.73
2022-10-15T09:25:51.116Z,13.75
2022-10-15T09:28:19.306Z,18.73
2022-10-15T09:30:48.696Z,15.27
2022-10-15T09:33:18.008Z,15.25
2022-10-15T09:35:52.876Z,14.93
2022-10-15T09:38:25.513Z,13.65
2022-10-15T09:40:59.929Z,12.20
2022-10-15T09:43:30.920Z,12.52
2022-10-15T09:45:57.601Z,13.15
2022-10-15T09:48:24.979Z,10.23
2022-10-15T09:51:04.020Z,11.48
2022-10-15T09:53:41.352Z,13.25
2022-10-15T09:56:10.855Z,9.23
2022-10-15T09:58:40.108Z,12.32
2022-10-15T10:01:07.205Z,12.98
2022-10-15T10:03:34.428Z,10.05
2022-10-15T10:06:08.816Z,13.40
2022-10-15T10:08:39.118Z,11.47
2022-10-15T10:11:07.476Z,11.02
2022-10-15T10:13:35.609Z,15.15
2022-10-15T10:16:03.723Z,16.90
2022-10-15T10:18:32.049Z,14.77
2022-10-15T10:21:00.090Z,12.93
2022-10-15T10:23:31.418Z,8.98
2022-10-15T10:26:05.636Z,9.90
2022-10-15T10:28:33.593Z,9.70
2022-10-15T10:31:04.667Z,10.50
2022-10-15T10:33:32.576Z,8.48
2022-10-15T10:35:59.387Z,8.57
2022-10-15T10:38:28.708Z,9.05
2022-10-15T10:40:56.459Z,10.25
2022-10-15T10:43:26.893Z,10.35
2022-10-15T10:45:58.075Z,10.43
2022-10-15T10:48:44.877Z,12.57
2022-10-15T10:51:30.837Z,10.93
2022-10-15T10:53:59.601Z,10.43
2022-10-15T10:56:55.152Z,9.88
2022-10-15T10:59:30.602Z,10.20
2022-10-15T11:01:57.432Z,9.90
2022-10-15T11:04:25.539Z,10.25
2022-10-15T11:07:14.631Z,11.32
2022-10-15T11:09:53.712Z,11.45
2022-10-15T11:12:28.634Z,22.65
2022-10-15T11:15:04.088Z,9.18
2022-10-15T11:17:47.479Z,8.80
2022-10-15T11:23:12.000Z,9.88
2022-10-15T11:28:23.232Z,8.38
2022-10-15T11:30:52.375Z,8.75
2022-10-15T11:33:33.817Z,8.75
2022-10-15T11:36:10.556Z,11.07
2022-10-15T11:38:44.625Z,9.48
2022-10-15T11:41:10.978Z,10.30
2022-10-15T11:43:43.569Z,8.70
2022-10-15T11:46:28.660Z,10.85
2022-10-15T11:49:13.860Z,8.73
2022-10-15T11:52:00.410Z,8.30
2022-10-15T11:54:31.586Z,7.97
2022-10-15T11:56:59.861Z,8.25
2022-10-15T11:59:26.339Z,8.20
2022-10-15T12:01:55.024Z,8.50
2022-10-15T12:04:32.581Z,7.88
2022-10-15T12:07:00.807Z,8.77
2022-10-15T12:09:34.001Z,8.45
2022-10-15T12:12:04.579Z,7.55
2022-10-15T12:14:34.844Z,7.53
2022-10-15T12:17:04.152Z,7.38
2022-10-15T12:19:40.120Z,6.53
2022-10-15T12:22:11.278Z,7.22
2022-10-15T12:24:37.572Z,7.45
2022-10-15T12:27:18.919Z,7.97
2022-10-15T12:29:45.790Z,7.78
2022-10-15T12:32:28.723Z,8.35
2022-10-15T12:35:02.134Z,8.18
2022-10-15T12:37:29.947Z,8.32
2022-10-15T12:40:01.579Z,8.85
2022-10-15T12:42:35.911Z,9.18
2022-10-15T12:45:05.212Z,8.17
2022-10-15T12:47:53.952Z,8.52
2022-10-15T12:50:27.286Z,8.60
2022-10-15T12:53:12.585Z,8.35
2022-10-15T12:55:39.545Z,7.72
2022-10-15T12:58:06.084Z,8.60
2022-10-15T13:00:33.820Z,9.35
2022-10-15T13:03:18.936Z,9.77
2022-10-15T13:05:47.783Z,10.70
2022-10-15T13:08:19.480Z,12.02
2022-10-15T13:10:56.131Z,13.55
2022-10-15T13:13:27.986Z,14.23
2022-10-15T13:15:59.052Z,10.32
2022-10-15T13:18:26.628Z,12.13
2022-10-15T13:20:56.178Z,13.00
2022-10-15T13:23:30.922Z,11.20
2022-10-15T13:26:12.016Z,10.80
2022-10-15T13:28:42.486Z,10.02
2022-10-15T13:31:17.842Z,10.07
2022-10-15T13:36:17.202Z,6.50
2022-10-15T13:38:47.266Z,5.95
2022-10-15T13:41:13.737Z,6.40
2022-10-15T13:43:50.620Z,6.25
2022-10-15T13:46:16.890Z,4.63
2022-10-15T13:51:13.350Z,4.93
2022-10-15T13:53:40.773Z,4.53
2022-10-15T13:56:19.437Z,4.20
2022-10-15T13:58:46.816Z,4.40
2022-10-15T14:01:23.722Z,3.33
2022-10-15T14:03:57.176Z,3.80
2022-10-15T14:06:24.759Z,3.50
2022-10-15T14:08:52.403Z,4.13
2022-10-15T14:11:19.367Z,3.97
2022-10-15T14:13:49.415Z,4.03
2022-10-15T14:16:15.666Z,3.88
2022-10-15T14:18:48.154Z,3.42
2022-10-15T14:21:18.374Z,3.53
2022-10-15T14:23:45.424Z,3.70
2022-10-15T14:26:12.654Z,3.90
2022-10-15T14:28:39.897Z,6.63
2022-10-15T14:31:06.792Z,12.65
2022-10-15T14:33:39.461Z,3.25
2022-10-15T14:36:25.587Z,3.63
2022-10-15T14:38:53.577Z,5.72
2022-10-15T14:41:30.657Z,3.22
2022-10-15T14:44:22.935Z,3.20
2022-10-15T14:46:51.253Z,8.70
2022-10-15T14:49:17.611Z,3.65
2022-10-15T14:51:44.109Z,4.03
2022-10-15T14:54:19.915Z,4.93
2022-10-15T14:56:46.416Z,2.83
2022-10-15T14:59:16.461Z,1.85
2022-10-15T15:01:51.369Z,2.80
2022-10-15T15:04:34.277Z,3.45
2022-10-15T15:07:00.712Z,3.40
2022-10-15T15:09:28.782Z,3.00
2022-10-15T15:11:55.110Z,4.68
2022-10-15T15:14:28.229Z,4.22
2022-10-15T15:16:54.773Z,3.15
2022-10-15T15:19:21.343Z,4.40
2022-10-15T15:21:47.726Z,3.35
2022-10-15T15:24:14.091Z,3.40
2022-10-15T15:26:40.385Z,3.30
2022-10-15T15:29:13.806Z,3.72
2022-10-15T15:31:40.335Z,3.65
2022-10-15T15:34:06.713Z,4.50
2022-10-15T15:36:33.125Z,4.82
2022-10-15T15:38:59.792Z,6.53
2022-10-15T15:41:26.111Z,4.13
2022-10-15T15:43:54.956Z,4.15
2022-10-15T15:46:21.215Z,4.70
2022-10-15T15:48:47.537Z,12.45
2022-10-15T15:51:18.976Z,4.82
2022-10-15T15:53:45.274Z,4.65
2022-10-15T15:56:11.767Z,7.00
2022-10-15T15:58:38.094Z,4.30
2022-10-15T16:01:04.472Z,3.83
2022-10-15T16:03:30.793Z,7.78
2022-10-15T16:05:57.121Z,8.55
2022-10-15T16:08:23.492Z,7.78
2022-10-15T16:10:49.773Z,6.35
2022-10-15T16:13:16.171Z,8.75
2022-10-15T16:15:42.446Z,13.48
2022-10-15T16:18:09.331Z,9.18
2022-10-15T16:20:39.377Z,9.85
2022-10-15T16:23:05.747Z,7.38
2022-10-15T16:25:32.055Z,10.75
2022-10-15T16:28:01.685Z,8.02
2022-10-15T16:30:28.317Z,7.28
2022-10-15T16:32:54.619Z,4.68
2022-10-15T16:35:20.943Z,8.38
2022-10-15T16:37:47.880Z,2.85
2022-10-15T16:40:15.600Z,5.80
2022-10-15T16:42:41.969Z,3.92
2022-10-15T16:45:09.260Z,2.50
2022-10-15T16:47:35.549Z,3.90
2022-10-15T16:50:02.567Z,3.33
2022-10-15T16:52:29.158Z,4.28
2022-10-15T16:54:55.461Z,3.92
2022-10-15T16:57:21.706Z,7.38
2022-10-15T16:59:48.027Z,3.35
2022-10-15T17:02:14.288Z,2.30
2022-10-15T17:04:40.774Z,4.38
2022-10-15T17:07:07.118Z,4.30
2022-10-15T17:09:33.617Z,5.97
2022-10-15T17:11:59.888Z,3.17
2022-10-15T17:14:26.204Z,11.68
2022-10-15T17:16:52.837Z,3.33
2022-10-15T17:19:20.222Z,2.60
2022-10-15T17:21:47.283Z,2.83
2022-10-15T17:24:15.809Z,3.70
2022-10-15T17:26:43.090Z,2.50
2022-10-15T17:29:13.563Z,6.10
2022-10-15T17:31:39.821Z,2.72
2022-10-15T17:34:07.344Z,2.58
2022-10-15T17:36:39.098Z,2.55
2022-10-15T17:39:05.371Z,6.28
2022-10-15T17:41:31.733Z,2.58
2022-10-15T17:43:58.032Z,3.72
2022-10-15T17:46:25.697Z,7.93
2022-10-15T17:48:52.644Z,10.40
2022-10-15T17:51:20.419Z,2.95
2022-10-15T17:53:46.760Z,2.72
2022-10-15T17:56:17.217Z,4.30
2022-10-15T17:58:43.981Z,2.95
2022-10-15T18:01:20.469Z,13.20
2022-10-15T18:03:54.868Z,2.47
2022-10-15T18:06:22.828Z,3.53
2022-10-15T18:08:49.923Z,3.28
2022-10-15T18:11:20.972Z,4.70
2022-10-15T18:13:48.645Z,4.38
2022-10-15T18:16:15.041Z,5.32
2022-10-15T18:18:41.477Z,4.88
2022-10-15T18:21:10.355Z,4.35
2022-10-15T18:23:40.163Z,2.72
2022-10-15T18:26:09.303Z,5.15
2022-10-15T18:28:37.364Z,4.65
2022-10-15T18:31:05.013Z,7.10
2022-10-15T18:33:31.809Z,6.03
2022-10-15T18:36:05.205Z,3.28
2022-10-15T18:38:31.532Z,6.95
2022-10-15T18:40:58.126Z,5.93
2022-10-15T18:43:24.448Z,4.72
2022-10-15T18:45:50.886Z,3.55
2022-10-15T18:48:17.411Z,5.90
2022-10-15T18:53:10.893Z,8.82
2022-10-15T18:55:37.657Z,8.60
2022-10-15T18:58:06.482Z,4.43
2022-10-15T19:00:33.456Z,7.15
2022-10-15T19:03:02.598Z,9.13
2022-10-15T19:05:29.144Z,7.70
2022-10-15T19:07:55.697Z,11.55
2022-10-15T19:10:23.452Z,15.05
2022-10-15T19:12:50.506Z,14.25
2022-10-15T19:15:16.973Z,16.00
2022-10-15T19:17:43.253Z,16.20
2022-10-15T19:20:10.034Z,11.27
2022-10-15T19:22:38.828Z,9.80
2022-10-15T19:25:06.527Z,10.10
2022-10-15T19:27:33.118Z,9.38
2022-10-15T19:29:59.676Z,7.05
2022-10-15T19:32:28.624Z,11.55
2022-10-15T19:34:55.017Z,16.98
2022-10-15T19:37:21.318Z,12.38
2022-10-15T19:39:50.427Z,10.02
2022-10-15T19:42:16.875Z,15.40
2022-10-15T19:44:43.249Z,13.88
2022-10-15T19:47:09.536Z,8.52
2022-10-15T19:49:36.005Z,17.35
2022-10-15T19:52:02.410Z,19.70
2022-10-15T19:54:28.774Z,13.13
2022-10-15T19:56:55.124Z,16.83
2022-10-15T19:59:21.772Z,11.85
2022-10-15T20:01:48.128Z,13.48
2022-10-15T20:04:14.518Z,14.90
2022-10-15T20:06:40.783Z,11.70
2022-10-15T20:09:10.262Z,13.98
2022-10-15T20:11:36.899Z,6.72
2022-10-15T20:14:03.856Z,8.93
2022-10-15T20:16:33.108Z,8.18
2022-10-15T20:19:00.893Z,7.50
2022-10-15T20:21:27.295Z,17.85
2022-10-15T20:23:53.648Z,7.50
2022-10-15T20:26:19.964Z,5.85
2022-10-15T20:28:46.881Z,6.78
2022-10-15T20:31:16.561Z,11.35
2022-10-15T20:33:43.769Z,7.03
2022-10-15T20:36:14.542Z,9.45
2022-10-15T20:38:41.442Z,12.55
2022-10-15T20:41:12.548Z,6.38
2022-10-15T20:43:39.168Z,4.00
2022-10-15T20:46:08.659Z,6.03
2022-10-15T20:48:35.120Z,5.57
2022-10-15T20:51:01.576Z,10.15
2022-10-15T20:53:31.012Z,6.63
2022-10-15T20:55:57.891Z,12.23
2022-10-15T20:58:24.627Z,10.38
2022-10-15T21:00:50.974Z,8.20
2022-10-15T21:03:17.612Z,5.65
2022-10-15T21:05:44.207Z,10.60
2022-10-15T21:08:10.496Z,11.38
2022-10-15T21:10:36.817Z,6.40
2022-10-15T21:13:03.234Z,7.95
2022-10-15T21:15:30.630Z,4.70
2022-10-15T21:17:57.972Z,5.05
2022-10-15T21:20:25.695Z,3.80
2022-10-15T21:22:52.109Z,5.38
2022-10-15T21:25:18.443Z,4.82
2022-10-15T21:27:44.732Z,6.13
2022-10-15T21:30:11.141Z,8.27
2022-10-15T21:32:37.478Z,6.03
2022-10-15T21:35:04.182Z,6.00
2022-10-15T21:37:37.755Z,5.35
2022-10-15T21:40:04.661Z,10.48
2022-10-15T21:42:31.213Z,3.78
2022-10-15T21:44:58.367Z,6.15
2022-10-15T21:47:25.280Z,6.93
2022-10-15T21:49:51.960Z,4.47
2022-10-15T21:52:18.461Z,13.90
2022-10-15T21:54:44.883Z,7.90
2022-10-15T21:57:11.293Z,7.22
2022-10-15T21:59:37.661Z,7.88
2022-10-15T22:02:04.094Z,15.13
2022-10-15T22:04:32.927Z,5.28
2022-10-15T22:06:59.195Z,7.95
2022-10-15T22:09:28.171Z,3.22
2022-10-15T22:11:54.565Z,3.08
2022-10-15T22:14:23.995Z,13.85
2022-10-15T22:16:50.408Z,3.08
2022-10-15T22:19:18.280Z,5.00
2022-10-15T22:21:44.936Z,7.00
2022-10-15T22:24:13.620Z,3.25
2022-10-15T22:26:41.398Z,3.88
2022-10-15T22:29:08.519Z,4.72
2022-10-15T22:31:35.170Z,5.45
2022-10-15T22:34:01.733Z,8.52
2022-10-15T22:36:29.624Z,11.88
2022-10-15T22:38:57.303Z,9.35
2022-10-15T22:41:25.950Z,16.40
2022-10-15T22:43:52.370Z,7.70
2022-10-15T22:46:27.792Z,13.00
2022-10-15T22:48:54.180Z,16.95
2022-10-15T22:51:23.769Z,21.92
2022-10-15T22:53:53.726Z,24.48
2022-10-15T22:56:20.055Z,20.63
2022-10-15T22:58:46.729Z,26.17
2022-10-15T23:01:14.629Z,26.10
2022-10-15T23:03:42.721Z,32.53
2022-10-15T23:06:09.522Z,37.40
2022-10-15T23:08:35.954Z,30.17
2022-10-15T23:11:16.173Z,18.30
2022-10-15T23:13:43.252Z,13.25
2022-10-15T23:16:12.589Z,7.65
2022-10-15T23:18:39.069Z,7.07
2022-10-15T23:21:06.724Z,9.05
2022-10-15T23:23:33.335Z,4.45
2022-10-15T23:26:02.544Z,6.68
2022-10-15T23:28:29.127Z,5.25
2022-10-15T23:30:56.099Z,5.35
2022-10-15T23:33:23.227Z,5.40
2022-10-15T23:36:02.914Z,5.85
2022-10-15T23:38:30.842Z,4.90
2022-10-15T23:41:05.124Z,4.20
2022-10-15T23:43:31.758Z,5.00
2022-10-15T23:45:58.284Z,5.68
2022-10-15T23:48:25.084Z,7.15
2022-10-15T23:50:52.300Z,11.85
2022-10-15T23:53:19.061Z,4.32
2022-10-15T23:55:45.508Z,6.28
2022-10-15T23:58:12.092Z,8.82
